Victory — WDB9496 — position and weather

sailwx.info

Track history (hours):
 
Tides and Currents Weather Stations Pressure Air Temp Water Temp Dewpoint Dewpoint Depression Visibility Wind Speed Wind Dir Waves Ship Positions

Victory

Owner: XENIOS, GEORGE, WILMINGTON, CA. More information available from US FCC via Universal Licensing System and Coast Guard Vessel Documentation Center.

Last reported at 2017-Dec-15 23:41 UTC. Time now 2017-Dec-16 11:23 UTC.
Position N 33°40' W 118°14'.

Type: Passenger vessel. MMSI: 366977270.

Date/timePositionNaut miles runAvg speedWind from/ knotsBaromVisibWave heightAir tempDewpointWater temp
2017-Dec-15 23:41N 33°40' W 118°14'1 0.6
2017-Dec-15 21:32N 33°39' W 118°14'0 1.9
2017-Dec-15 21:30N 33°39' W 118°14'4 0.7
2017-Dec-15 16:21N 33°36' W 118°16'0 0.0
2017-Dec-15 15:59N 33°36' W 118°16'9 6.7
2017-Dec-15 14:36N 33°45' W 118°13'8 0.4
2017-Dec-14 18:27N 33°37' W 118°11'2 3.0
2017-Dec-14 17:53N 33°38' W 118°13'1 0.5
2017-Dec-14 16:38N 33°38' W 118°14'0 0.3
2017-Dec-14 16:29N 33°38' W 118°14'0 0.1
2017-Dec-14 15:57N 33°38' W 118°14'2 0.1
2017-Dec-13 20:36N 33°40' W 118°15'0 1.0
2017-Dec-13 20:26N 33°40' W 118°15'1 3.1
2017-Dec-13 20:00N 33°41' W 118°17'0 0.3
2017-Dec-13 19:29N 33°42' W 118°17'0 0.0
2017-Dec-13 18:58N 33°42' W 118°17'0 0.0
2017-Dec-13 18:30N 33°42' W 118°17'0 0.8
2017-Dec-13 18:00N 33°41' W 118°17'0 0.0
2017-Dec-13 17:30N 33°41' W 118°17'  
Track history (hours):
 
Tides and Currents Weather Stations Pressure Air Temp Water Temp Dewpoint Dewpoint Depression Visibility Wind Speed Wind Dir Waves Ship Positions

Victory

Owner: XENIOS, GEORGE, WILMINGTON, CA. More information available from US FCC via Universal Licensing System and Coast Guard Vessel Documentation Center.

Last reported at 2017-Dec-15 23:41 UTC. Time now 2017-Dec-16 11:23 UTC.
Position N 33°40' W 118°14'.

Type: Passenger vessel. MMSI: 366977270.

Date/timePositionNaut miles runAvg speedWind from/ knotsBaromVisibWave heightAir tempDewpointWater temp
2017-Dec-15 23:41N 33°40' W 118°14'1 0.6
2017-Dec-15 21:32N 33°39' W 118°14'0 1.9
2017-Dec-15 21:30N 33°39' W 118°14'4 0.7
2017-Dec-15 16:21N 33°36' W 118°16'0 0.0
2017-Dec-15 15:59N 33°36' W 118°16'9 6.7
2017-Dec-15 14:36N 33°45' W 118°13'8 0.4
2017-Dec-14 18:27N 33°37' W 118°11'2 3.0
2017-Dec-14 17:53N 33°38' W 118°13'1 0.5
2017-Dec-14 16:38N 33°38' W 118°14'0 0.3
2017-Dec-14 16:29N 33°38' W 118°14'0 0.1
2017-Dec-14 15:57N 33°38' W 118°14'2 0.1
2017-Dec-13 20:36N 33°40' W 118°15'0 1.0
2017-Dec-13 20:26N 33°40' W 118°15'1 3.1
2017-Dec-13 20:00N 33°41' W 118°17'0 0.3
2017-Dec-13 19:29N 33°42' W 118°17'0 0.0
2017-Dec-13 18:58N 33°42' W 118°17'0 0.0
2017-Dec-13 18:30N 33°42' W 118°17'0 0.8
2017-Dec-13 18:00N 33°41' W 118°17'0 0.0
2017-Dec-13 17:30N 33°41' W 118°17'  

Dump ship's entire track history